Main page
METAR-TAF:

METAR-TAF

Airports :

Minot International Airport

Minot, North Dakota, United States

latitude: 48-15-34N, longitude: 101-16-49W, elevation: 523 m

Current weather observation

The report was made 55 minutes ago, at 08:54 UTC
Wind 4 kt from the West
Temperature -13°C
Humidity 78%
Pressure 1034 hPa
Visibility: 16.1 km
Overcast at a height of 2100 ft

METAR: KMOT 170854Z AUTO 28004KT 10SM OVC021 M13/M16 A3054 RMK AO2 SLP384 T11331161 51012

Time: 03:49 (09:49 UTC)

Forecast

The report was made 50 minutes ago, at 08:59 UTC
Forecast valid from 17 at 09 UTC to 18 at 06 UTC
Wind 4 kt from the West
Visibility: 10 km
Overcast at a height of 2100 ft
From 17 at 1500 UTC
Wind 7 kt from the West
Visibility: 10 km
Broken clouds at a height of 3000 ft
From 17 at 1900 UTC
Wind 10 kt from the West/Southwest
Visibility: 10 km
Few clouds at a height of 20000 ft

TAF: KMOT 170859Z 1709/1806 28004KT P6SM OVC021 FM171500 26007KT P6SM BKN030 FM171900 25010KT P6SM FEW200

Weather observations and forecasts of more than 4000 airports (METAR and TAF reports).

The available stations are represented by yellow and red dots on the map.

Hover mouse over dot to see the name of the station.

Then click to see weather observations and forecasts.

To change the map : click on the green buttons with a black cross to zoom in, on the green button with a dash to zoom out, or on the green arrows for adjacent maps.


METAR-TAF: